createdAt,value
2022-12-31T00:04:03.675Z,10.804578412416387
2022-12-31T00:11:20.714Z,10.881477973453176
2022-12-31T00:17:41.207Z,10.832675323996655
2022-12-31T00:24:02.234Z,10.822425010451504
2022-12-31T00:30:21.556Z,10.788863921404683
2022-12-31T00:37:33.828Z,10.735216346153845
2022-12-31T00:43:53.842Z,10.625515389841137
2022-12-31T01:01:01.179Z,10.718956417224081
2022-12-31T01:12:58.557Z,10.795405910326087
2022-12-31T01:19:51.515Z,10.775090797449833
2022-12-31T01:26:11.289Z,10.757557744565217
2022-12-31T01:32:30.445Z,10.769171326295986
2022-12-31T01:38:49.266Z,10.812808972617056
2022-12-31T01:45:08.294Z,10.825609453386287
2022-12-31T01:51:27.588Z,10.84067660430602
2022-12-31T02:02:22.642Z,10.868819894439799
2022-12-31T02:08:42.565Z,10.852485498536788
2022-12-31T02:15:01.925Z,10.874776599080267
2022-12-31T02:21:21.000Z,10.879818797031772
2022-12-31T02:27:40.876Z,10.984799592391305
2022-12-31T02:34:00.967Z,11.11586081208194
2022-12-31T02:40:20.724Z,11.172521686872912
2022-12-31T02:46:40.394Z,11.143388116638796
2022-12-31T02:52:59.345Z,11.091448709239131
2022-12-31T02:59:17.722Z,11.076245035535118
2022-12-31T03:11:47.821Z,11.033422606605352
2022-12-31T03:18:07.231Z,11.090544654055185
2022-12-31T03:24:27.053Z,11.109799592391305
2022-12-31T03:30:46.011Z,11.110608277591973
2022-12-31T03:37:04.746Z,11.068559913252509
2022-12-31T03:47:53.275Z,11.004168190844482
2022-12-31T03:54:13.600Z,11.051277696488294
2022-12-31T04:00:32.766Z,10.938437369356187
2022-12-31T04:06:51.711Z,10.919847408026754
2022-12-31T04:13:10.431Z,10.853538487667224
2022-12-31T04:25:19.595Z,10.742381506061873
2022-12-31T04:31:38.479Z,10.664152644230771
2022-12-31T04:47:57.625Z,10.554302753971573
2022-12-31T04:54:16.534Z,10.53417576818562
2022-12-31T05:00:35.318Z,10.54132133152174
2022-12-31T05:13:07.713Z,10.496134249581939
2022-12-31T05:19:27.550Z,10.458195286371238
2022-12-31T05:31:21.845Z,10.424679922658862
2022-12-31T05:40:42.208Z,10.393927675585285
2022-12-31T05:47:25.536Z,10.393026886496655
2022-12-31T05:53:45.092Z,10.42291035221572
2022-12-31T06:00:04.589Z,10.440970552884615
2022-12-31T06:12:40.571Z,10.42455777069398
2022-12-31T06:19:00.006Z,10.388603940217392
2022-12-31T06:25:19.702Z,10.383817804138795
2022-12-31T06:35:37.160Z,10.396245950041806
2022-12-31T06:41:56.177Z,10.417996838419732
2022-12-31T06:48:17.078Z,10.387034254807693
2022-12-31T06:54:36.661Z,10.402070704431438
2022-12-31T07:00:56.176Z,10.430351823787623
2022-12-31T07:07:16.688Z,10.427505095108694
2022-12-31T07:18:36.619Z,10.446382472826086
2022-12-31T07:24:55.855Z,10.479795934364548
2022-12-31T07:43:32.561Z,10.48429922658863
2022-12-31T07:49:52.146Z,10.53141199832776
2022-12-31T07:56:10.801Z,10.534079744983277
2022-12-31T08:02:30.076Z,10.531623641304348
2022-12-31T08:08:49.213Z,10.573208220108695
2022-12-31T08:15:09.481Z,10.581459030100335
2022-12-31T08:21:34.851Z,10.5985073944398
2022-12-31T08:27:57.299Z,10.606437473871237
2022-12-31T08:34:19.940Z,10.66644087061037
2022-12-31T08:43:51.306Z,10.702042616011706
2022-12-31T08:50:13.121Z,10.752363346571904
2022-12-31T08:56:34.923Z,10.755795359531774
2022-12-31T09:04:58.186Z,10.81381558319398
2022-12-31T09:11:23.275Z,10.881383256688961
2022-12-31T09:21:20.687Z,10.968041257316054
2022-12-31T09:27:43.181Z,11.02916949728261
2022-12-31T09:34:08.291Z,11.106002429974918
2022-12-31T09:46:12.192Z,11.266483329849498
2022-12-31T09:52:33.808Z,11.351152931647157
2022-12-31T09:58:55.152Z,11.423898019439799
2022-12-31T10:05:17.426Z,11.47177571070234
2022-12-31T10:11:39.284Z,11.626303825250837
2022-12-31T10:18:01.626Z,11.71956978992475
2022-12-31T10:24:23.949Z,11.798290525710701
2022-12-31T10:30:45.951Z,11.873925454640467
2022-12-31T10:37:08.599Z,11.961409777382944
2022-12-31T10:43:31.674Z,12.103349054138796
2022-12-31T10:49:53.403Z,12.185842130016724
2022-12-31T10:56:19.444Z,12.18615894126254
2022-12-31T11:02:43.906Z,12.245178590091973
2022-12-31T11:09:12.343Z,12.28680758779264
2022-12-31T11:15:34.357Z,12.311759902801002
2022-12-31T11:21:55.987Z,12.430782295150502
2022-12-31T11:28:20.865Z,12.440451243729099
2022-12-31T11:34:42.824Z,12.438051316889633
2022-12-31T11:47:08.610Z,12.590819659280935
2022-12-31T11:56:20.165Z,12.818056281354513
2022-12-31T12:02:42.291Z,12.968881297031773
2022-12-31T12:09:04.552Z,13.000271085911372
2022-12-31T12:15:27.083Z,12.907858878553512
2022-12-31T12:21:49.539Z,12.862977503135452
2022-12-31T12:28:11.171Z,12.842143734322743
2022-12-31T12:34:34.321Z,12.812560096153847
2022-12-31T12:40:56.042Z,12.850287416387959
2022-12-31T12:47:18.350Z,12.805074858904682
2022-12-31T12:53:41.121Z,12.742459239130433
2022-12-31T13:00:25.747Z,12.82180118624582
2022-12-31T13:13:23.224Z,13.021204797240802
2022-12-31T13:20:49.862Z,13.127515546613711
2022-12-31T13:27:12.518Z,13.245816785117055
2022-12-31T13:33:35.667Z,13.226226092182273
2022-12-31T13:39:57.144Z,13.133810618729099
2022-12-31T13:46:17.517Z,13.131905178720736
2022-12-31T13:52:39.214Z,13.151426630434782
2022-12-31T13:59:00.536Z,13.097701322115384
2022-12-31T14:15:20.485Z,13.044450904055186
2022-12-31T14:21:41.633Z,13.021466738085284
2022-12-31T14:28:06.028Z,13.050848531563544
2022-12-31T14:37:11.801Z,13.179961198787625
2022-12-31T14:43:32.120Z,13.233254729306019
2022-12-31T14:49:50.681Z,13.266191994147157
2022-12-31T14:56:10.897Z,13.332079588210702
2022-12-31T15:02:30.754Z,13.36700721153846
2022-12-31T15:08:50.215Z,13.518037338001673
2022-12-31T15:15:10.015Z,13.540523097826087
2022-12-31T15:22:47.698Z,13.673429008152173
2022-12-31T15:29:07.492Z,13.6789761444398
2022-12-31T15:35:26.725Z,13.639815661580267
2022-12-31T15:42:18.624Z,13.687669183737457
2022-12-31T15:49:00.467Z,13.625936716137122
2022-12-31T15:55:23.389Z,13.583711329431436
2022-12-31T16:01:43.628Z,13.566219429347825
2022-12-31T16:08:03.543Z,13.507553825250836
2022-12-31T16:17:15.166Z,13.50104123118729
2022-12-31T16:23:40.498Z,13.459906720317726
2022-12-31T16:30:01.869Z,13.466634876672241
2022-12-31T16:36:22.129Z,13.472377325459865
2022-12-31T16:42:44.518Z,13.5851490645903
2022-12-31T16:50:07.253Z,13.54649352006689
2022-12-31T16:56:50.914Z,13.531067098662206
2022-12-31T17:05:59.509Z,13.711117135242475
2022-12-31T17:17:41.274Z,13.797270197533445
2022-12-31T17:24:11.642Z,13.709355403428093
2022-12-31T17:38:30.520Z,13.544883988294316
2022-12-31T17:44:50.876Z,13.576418791806018
2022-12-31T17:51:10.122Z,13.57277578908863
2022-12-31T17:57:30.140Z,13.570303354933111
2022-12-31T18:03:49.548Z,13.543951844690636
2022-12-31T18:10:10.255Z,13.405732650501674
2022-12-31T18:16:29.703Z,13.452446958612041
2022-12-31T18:22:49.488Z,13.422684338419732
2022-12-31T18:40:41.397Z,13.504360890468227
2022-12-31T18:52:15.400Z,13.496021895903011
2022-12-31T18:59:17.668Z,13.504279891304348
2022-12-31T19:05:36.986Z,13.586339229724077
2022-12-31T19:11:56.603Z,13.667354070861203
2022-12-31T19:18:16.625Z,13.61792629076087
2022-12-31T19:24:36.320Z,13.727047188545152
2022-12-31T19:36:38.651Z,13.645291596989965
2022-12-31T19:45:06.053Z,13.678882080894649
2022-12-31T19:51:25.904Z,13.668079144021739
2022-12-31T19:57:45.043Z,13.756317934782606
2022-12-31T20:04:04.371Z,13.818918530518395
2022-12-31T20:14:10.095Z,13.937423573369568
2022-12-31T20:20:29.915Z,14.07793164715719
2022-12-31T20:26:49.006Z,13.985686010660537
2022-12-31T20:36:07.631Z,13.95723244147157
2022-12-31T20:42:27.346Z,14.004884118938127
2022-12-31T20:49:31.358Z,14.209239783653846
2022-12-31T20:56:12.271Z,14.09710885242475
2022-12-31T21:04:41.207Z,14.173599498327759
2022-12-31T21:12:35.845Z,14.337580345944817
2022-12-31T21:18:54.666Z,14.365633491847827
2022-12-31T21:25:14.260Z,14.414517793687292
2022-12-31T21:37:58.880Z,14.509188179347824
2022-12-31T21:50:21.949Z,14.384679400083611
2022-12-31T21:56:40.927Z,14.378036815426421
2022-12-31T22:07:52.507Z,14.384604933110367
2022-12-31T22:14:11.227Z,14.613724132525082
2022-12-31T22:20:30.554Z,14.617979201505017
2022-12-31T22:30:11.576Z,14.450632969272576
2022-12-31T22:36:30.221Z,14.594445678302675
2022-12-31T22:42:49.248Z,14.5381486465301
2022-12-31T22:49:07.945Z,14.534019648829432
2022-12-31T22:55:27.084Z,14.373979671822742
2022-12-31T23:01:47.582Z,14.35268342391304
2022-12-31T23:14:54.103Z,14.362782190635452
2022-12-31T23:28:44.438Z,14.481967887750836
2022-12-31T23:35:09.573Z,14.497272810409699
2022-12-31T23:42:52.920Z,14.513907033862877
2022-12-31T23:53:31.997Z,14.491619852633777
2022-12-31T23:59:51.373Z,14.54768564485786
